Time;durP1;ratioP1;P1;durP2;ratioP2;P2;SDS_P1;SDS_P2;PMS_P1;PMS_P2;Temp;Humidity;BMP_temperature;BMP_pressure;BME280_temperature;BME280_humidity;BME280_pressure;Samples;Min_cycle;Max_cycle;Signal;HPM_P1;HPM_P2
2023/06/16 00:01:08;;;;;;;8.20;5.70;;;;;;;21.01;42.58;97445.03;5077332;28;20824;-70
2023/06/16 00:03:34;;;;;;;5.67;5.07;;;;;;;20.98;42.64;97440.94;5092692;28;20937;-69
2023/06/16 00:06:12;;;;;;;9.00;6.00;;;;;;;21.04;42.32;97438.47;5087350;28;20451;-69
2023/06/16 00:08:48;;;;;;;5.43;4.93;;;;;;;20.94;42.77;97439.72;5089701;28;20420;-69
2023/06/16 00:11:15;;;;;;;6.50;5.67;;;;;;;21.02;42.34;97441.31;5083280;28;20454;-70
2023/06/16 00:13:42;;;;;;;5.57;5.07;;;;;;;20.96;42.70;97435.00;5086105;28;20438;-69
2023/06/16 00:16:09;;;;;;;5.80;5.30;;;;;;;20.97;42.50;97438.50;5089111;28;20492;-70
2023/06/16 00:18:35;;;;;;;8.50;5.70;;;;;;;20.98;42.68;97440.16;5089213;28;20735;-69
2023/06/16 00:21:02;;;;;;;9.17;5.20;;;;;;;20.89;42.63;97434.25;5093109;28;20454;-69
2023/06/16 00:23:28;;;;;;;6.83;5.50;;;;;;;20.79;42.74;97436.56;5086912;28;20438;-68
2023/06/16 00:25:53;;;;;;;8.90;5.10;;;;;;;20.72;43.07;97439.22;5094864;28;20471;-70
2023/06/16 00:28:19;;;;;;;8.37;5.20;;;;;;;20.72;42.98;97436.56;5087177;28;20979;-69
2023/06/16 00:30:45;;;;;;;10.23;6.13;;;;;;;20.76;43.26;97440.44;5080853;28;20189;-70
2023/06/16 00:33:12;;;;;;;5.80;5.30;;;;;;;20.65;43.45;97439.25;5090167;28;20427;-69
2023/06/16 00:35:38;;;;;;;6.17;5.53;;;;;;;20.62;43.35;97436.16;5087793;28;20209;-69
2023/06/16 00:38:04;;;;;;;6.80;5.50;;;;;;;20.60;43.33;97439.03;5092170;28;20423;-69
2023/06/16 00:40:29;;;;;;;6.40;5.50;;;;;;;20.53;43.87;97440.94;5071740;28;20189;-69
2023/06/16 00:42:58;;;;;;;7.40;5.83;;;;;;;20.54;43.55;97446.03;5090024;28;20224;-69
2023/06/16 00:45:23;;;;;;;8.90;5.00;;;;;;;20.52;44.01;97447.28;5093857;28;20280;-69
2023/06/16 00:47:50;;;;;;;5.27;4.77;;;;;;;20.59;43.52;97442.72;5089839;28;20430;-68
2023/06/16 00:50:18;;;;;;;7.07;5.77;;;;;;;20.48;43.81;97446.06;5089444;28;20189;-70
2023/06/16 00:52:44;;;;;;;6.43;5.37;;;;;;;20.45;43.71;97443.81;5094059;28;20502;-68
2023/06/16 00:55:11;;;;;;;5.60;5.10;;;;;;;20.45;43.81;97435.81;5093702;28;20936;-69
2023/06/16 00:57:39;;;;;;;6.87;6.07;;;;;;;20.40;44.20;97434.63;5089273;28;20982;-69
2023/06/16 01:00:07;;;;;;;6.40;5.40;;;;;;;20.41;44.04;97438.91;5090259;28;20442;-70
2023/06/16 01:02:33;;;;;;;7.07;5.13;;;;;;;20.33;44.06;97438.34;5094151;28;20912;-69
2023/06/16 01:04:59;;;;;;;6.20;5.10;;;;;;;20.14;44.62;97440.81;5091325;28;20431;-70
2023/06/16 01:07:32;;;;;;;6.87;5.67;;;;;;;20.05;44.39;97437.56;5084903;28;20825;-69
2023/06/16 01:10:19;;;;;;;7.03;6.33;;;;;;;20.09;44.53;97441.44;5070206;28;20749;-69
2023/06/16 01:13:10;;;;;;;6.27;5.50;;;;;;;20.09;44.65;97444.09;5063328;28;20476;-69
2023/06/16 01:15:36;;;;;;;7.53;5.57;;;;;;;20.04;44.98;97430.59;5074862;28;20542;-70
2023/06/16 01:18:02;;;;;;;6.70;6.00;;;;;;;19.98;45.12;97435.94;5070456;28;20833;-70
2023/06/16 01:20:41;;;;;;;11.53;5.70;;;;;;;19.95;44.73;97432.69;5089927;28;20424;-70
2023/06/16 01:23:47;;;;;;;6.40;5.60;;;;;;;19.88;45.04;97428.41;5071830;28;20241;-69
2023/06/16 01:26:13;;;;;;;5.90;5.30;;;;;;;19.91;44.88;97431.44;5089372;28;20949;-69
2023/06/16 01:28:40;;;;;;;6.60;6.00;;;;;;;19.92;44.98;97425.09;5073342;28;20431;-69
2023/06/16 01:31:08;;;;;;;8.93;6.00;;;;;;;19.90;45.31;97426.34;5092440;28;20431;-68
2023/06/16 01:33:35;;;;;;;6.33;5.33;;;;;;;19.97;45.04;97426.34;5088376;28;20420;-68
2023/06/16 01:36:01;;;;;;;6.93;5.37;;;;;;;19.95;44.85;97432.69;5087922;28;20454;-70
2023/06/16 01:38:27;;;;;;;6.40;5.90;;;;;;;19.87;45.15;97426.75;5076274;28;20428;-70
2023/06/16 01:40:54;;;;;;;7.37;5.73;;;;;;;19.78;45.13;97426.91;5091579;28;20535;-69
2023/06/16 01:43:20;;;;;;;9.40;5.87;;;;;;;19.63;45.72;97429.00;5070565;28;20803;-68
2023/06/16 01:45:46;;;;;;;6.50;5.50;;;;;;;19.57;45.81;97427.16;5073670;28;20553;-69
2023/06/16 01:48:12;;;;;;;6.57;5.40;;;;;;;19.52;46.02;97432.28;5077736;28;20426;-69
2023/06/16 01:50:37;;;;;;;6.60;5.20;;;;;;;19.64;45.38;97431.44;5078464;28;20430;-68
2023/06/16 01:53:03;;;;;;;9.73;5.70;;;;;;;19.54;45.91;97427.53;5089235;28;20182;-68
2023/06/16 01:55:28;;;;;;;6.20;5.13;;;;;;;19.50;45.80;97427.13;5076894;28;20209;-69
2023/06/16 01:57:56;;;;;;;8.43;5.60;;;;;;;19.52;45.72;97421.63;5070581;28;20638;-68
2023/06/16 02:00:27;;;;;;;6.60;5.57;;;;;;;19.56;45.72;97422.84;5088062;28;20219;-68
2023/06/16 02:02:57;;;;;;;7.47;5.50;;;;;;;19.54;45.71;97424.88;5079120;28;20554;-67
2023/06/16 02:05:24;;;;;;;7.33;5.40;;;;;;;19.58;45.63;97426.13;5094561;28;20458;-68
2023/06/16 02:07:51;;;;;;;6.27;5.67;;;;;;;19.59;45.65;97422.44;5070420;28;20427;-68
2023/06/16 02:10:18;;;;;;;8.83;5.63;;;;;;;19.45;45.85;97427.75;5070284;28;20943;-68
2023/06/16 02:12:43;;;;;;;6.20;5.60;;;;;;;19.43;45.77;97421.81;5081201;28;20908;-69
2023/06/16 02:15:09;;;;;;;6.47;5.87;;;;;;;19.51;45.56;97425.31;5096661;28;20515;-68
2023/06/16 02:17:35;;;;;;;7.87;5.80;;;;;;;19.41;45.66;97418.53;5072313;28;20201;-70
2023/06/16 02:20:00;;;;;;;10.80;5.40;;;;;;;19.31;46.08;97418.97;5095022;28;20261;-69
2023/06/16 02:22:26;;;;;;;8.70;5.97;;;;;;;19.32;46.30;97425.09;5089217;28;20235;-68
2023/06/16 02:24:51;;;;;;;5.87;5.30;;;;;;;19.27;46.07;97425.69;5088034;28;20185;-68
2023/06/16 02:27:16;;;;;;;5.70;5.10;;;;;;;19.21;46.29;97431.84;5088650;28;20818;-68
2023/06/16 02:29:42;;;;;;;5.97;5.40;;;;;;;19.17;46.22;97428.75;5087524;28;20185;-68
2023/06/16 02:32:07;;;;;;;7.80;5.40;;;;;;;19.26;46.19;97428.56;5097693;28;20284;-67
2023/06/16 02:34:33;;;;;;;7.07;5.87;;;;;;;19.25;46.18;97438.38;5091432;28;20264;-70
2023/06/16 02:37:00;;;;;;;6.83;5.50;;;;;;;19.18;46.46;97441.00;5093414;28;20834;-68
2023/06/16 02:39:25;;;;;;;8.07;6.57;;;;;;;19.07;46.73;97440.78;5092366;28;20559;-69
2023/06/16 02:41:51;;;;;;;6.50;5.90;;;;;;;19.03;46.59;97446.50;5095753;28;20451;-68
2023/06/16 02:44:16;;;;;;;7.40;5.60;;;;;;;19.02;46.92;97442.22;5095364;28;20177;-69
2023/06/16 02:46:42;;;;;;;11.20;5.90;;;;;;;18.91;47.06;97441.94;5087195;28;20987;-68
2023/06/16 02:49:07;;;;;;;6.00;5.37;;;;;;;18.82;46.88;97450.09;5087843;28;20193;-68
2023/06/16 02:51:34;;;;;;;7.93;6.00;;;;;;;18.70;47.60;97446.38;5087528;28;20230;-68
2023/06/16 02:54:00;;;;;;;6.30;5.20;;;;;;;18.64;47.50;97441.88;5097385;28;20177;-68
2023/06/16 02:56:28;;;;;;;7.33;5.33;;;;;;;18.76;47.55;97448.25;5090180;28;20608;-68
2023/06/16 02:58:54;;;;;;;6.80;5.70;;;;;;;18.85;47.43;97444.38;5070450;28;20188;-67
2023/06/16 03:01:24;;;;;;;6.70;5.60;;;;;;;18.84;47.51;97444.56;5088139;28;20452;-71
2023/06/16 03:03:52;;;;;;;6.83;5.73;;;;;;;18.83;47.44;97451.72;5080369;28;20420;-68
2023/06/16 03:06:19;;;;;;;6.80;5.87;;;;;;;18.85;47.54;97455.00;5095348;28;20451;-68
2023/06/16 03:08:45;;;;;;;6.10;5.50;;;;;;;18.86;47.22;97448.69;5090482;28;20430;-71
2023/06/16 03:11:10;;;;;;;8.60;5.80;;;;;;;18.72;47.70;97447.00;5085298;28;20448;-69
2023/06/16 03:13:37;;;;;;;8.80;6.00;;;;;;;18.68;47.91;97448.41;5086454;28;20273;-69
2023/06/16 03:16:03;;;;;;;6.50;5.77;;;;;;;18.66;47.95;97445.09;5087271;28;20214;-69
2023/06/16 03:18:28;;;;;;;9.07;5.67;;;;;;;18.76;48.01;97432.31;5087623;28;20428;-69
2023/06/16 03:20:54;;;;;;;6.50;5.70;;;;;;;18.86;47.63;97447.84;5084684;28;20209;-68
2023/06/16 03:23:20;;;;;;;8.20;5.70;;;;;;;18.84;47.56;97448.06;5095698;28;20185;-68
2023/06/16 03:25:46;;;;;;;6.27;5.67;;;;;;;18.84;47.84;97439.25;5070492;28;20479;-69
2023/06/16 03:28:12;;;;;;;8.00;5.77;;;;;;;18.70;47.88;97447.19;5088137;28;20186;-69
2023/06/16 03:30:38;;;;;;;7.50;5.70;;;;;;;18.70;47.99;97451.66;5086523;28;20463;-69
2023/06/16 03:33:03;;;;;;;9.37;6.03;;;;;;;18.73;47.87;97453.94;5072831;28;20435;-69
2023/06/16 03:35:29;;;;;;;11.07;6.00;;;;;;;18.73;47.66;97452.09;5083349;28;20221;-69
2023/06/16 03:37:54;;;;;;;8.33;6.03;;;;;;;18.65;47.88;97456.78;5087387;28;20718;-68
2023/06/16 03:40:20;;;;;;;9.03;6.10;;;;;;;18.52;48.30;97454.88;5087657;28;20209;-68
2023/06/16 03:42:45;;;;;;;6.77;6.17;;;;;;;18.50;48.35;97452.41;5083606;28;20244;-69
2023/06/16 03:45:11;;;;;;;6.30;5.70;;;;;;;18.44;48.50;97461.16;5093123;28;20782;-70
2023/06/16 03:47:36;;;;;;;7.43;6.07;;;;;;;18.48;48.69;97454.44;5088614;28;20181;-69
2023/06/16 03:50:03;;;;;;;6.83;6.13;;;;;;;18.60;48.27;97456.53;5069469;28;20185;-69
2023/06/16 03:52:28;;;;;;;6.83;5.83;;;;;;;18.62;48.46;97455.31;5079690;28;20269;-69
2023/06/16 03:54:53;;;;;;;11.33;6.13;;;;;;;18.68;48.34;97456.34;5068764;28;20424;-68
2023/06/16 03:57:19;;;;;;;6.60;5.90;;;;;;;18.71;48.13;97451.47;5087285;28;20244;-66
2023/06/16 03:59:44;;;;;;;6.57;6.00;;;;;;;18.62;48.47;97457.97;5095868;28;20188;-70
2023/06/16 04:02:10;;;;;;;6.10;5.50;;;;;;;18.61;48.38;97466.13;5083983;28;21002;-69
2023/06/16 04:04:36;;;;;;;10.17;5.90;;;;;;;18.56;48.46;97466.72;5102471;28;20249;-69
2023/06/16 04:07:03;;;;;;;10.57;6.07;;;;;;;18.53;48.66;97465.28;5072909;28;20213;-69
2023/06/16 04:09:30;;;;;;;8.90;6.20;;;;;;;18.62;48.75;97459.81;5093171;28;20427;-68
2023/06/16 04:11:55;;;;;;;9.33;6.03;;;;;;;18.56;49.03;97459.56;5089309;28;20498;-68
2023/06/16 04:14:20;;;;;;;7.37;5.83;;;;;;;18.60;48.72;97459.19;5092597;28;20416;-68
2023/06/16 04:16:46;;;;;;;6.47;5.57;;;;;;;18.59;48.58;97458.34;5098232;28;20690;-70
2023/06/16 04:19:11;;;;;;;7.97;5.90;;;;;;;18.68;48.56;97449.22;5088160;28;20292;-68
2023/06/16 04:21:37;;;;;;;8.20;5.73;;;;;;;18.68;48.68;97462.50;5090387;28;20255;-69
2023/06/16 04:24:04;;;;;;;10.77;6.30;;;;;;;18.75;48.81;97459.03;5087239;28;20185;-68
2023/06/16 04:26:32;;;;;;;9.70;5.90;;;;;;;18.83;48.62;97462.34;5088768;28;20241;-69
2023/06/16 04:29:00;;;;;;;10.50;6.40;;;;;;;18.85;48.60;97462.13;5091274;28;20435;-68
2023/06/16 04:31:29;;;;;;;10.07;6.80;;;;;;;18.76;48.87;97466.81;5090481;28;20510;-69
2023/06/16 04:33:56;;;;;;;9.00;6.20;;;;;;;18.76;48.95;97469.47;5089079;28;20488;-68
2023/06/16 04:36:22;;;;;;;6.70;5.90;;;;;;;18.81;48.71;97463.56;5098605;28;20493;-67
2023/06/16 04:38:48;;;;;;;10.87;6.10;;;;;;;18.83;48.84;97469.50;5089701;28;20473;-67
2023/06/16 04:41:13;;;;;;;7.63;6.17;;;;;;;18.87;48.82;97466.25;5090260;28;20868;-68
2023/06/16 04:43:39;;;;;;;8.70;6.57;;;;;;;18.83;48.95;97467.66;5085532;28;20728;-68
2023/06/16 04:46:04;;;;;;;13.80;6.50;;;;;;;18.86;48.89;97469.09;5089968;28;20217;-68
2023/06/16 04:48:30;;;;;;;8.37;6.37;;;;;;;18.92;49.14;97475.44;5080716;28;20192;-68
2023/06/16 04:50:57;;;;;;;7.03;5.60;;;;;;;18.91;49.30;97464.00;5077698;28;20647;-68
2023/06/16 04:53:23;;;;;;;7.83;6.57;;;;;;;19.01;49.20;97467.13;5090439;28;20178;-69
2023/06/16 04:55:48;;;;;;;6.80;5.50;;;;;;;19.02;49.11;97466.13;5068387;28;20875;-68
2023/06/16 04:58:14;;;;;;;10.47;6.20;;;;;;;19.11;49.18;97469.41;5097239;28;20185;-67
2023/06/16 05:00:39;;;;;;;15.63;5.97;;;;;;;19.21;48.59;97457.56;5072493;28;20189;-68
2023/06/16 05:03:05;;;;;;;6.70;6.00;;;;;;;19.19;48.49;97457.78;5087095;28;20206;-68
2023/06/16 05:05:32;;;;;;;6.30;5.70;;;;;;;19.31;48.52;97458.00;5089983;28;20721;-70
2023/06/16 05:07:58;;;;;;;10.00;6.07;;;;;;;19.36;48.77;97457.38;5096917;28;20546;-69
2023/06/16 05:10:23;;;;;;;6.47;5.87;;;;;;;19.47;48.72;97454.94;5081562;28;20432;-69
2023/06/16 05:12:49;;;;;;;8.83;5.90;;;;;;;19.60;48.23;97453.31;5090705;28;20422;-70
2023/06/16 05:15:14;;;;;;;8.33;5.90;;;;;;;19.65;48.59;97450.88;5092573;28;20185;-69
2023/06/16 05:17:40;;;;;;;6.70;5.60;;;;;;;19.77;48.52;97454.56;5089750;28;20174;-67
2023/06/16 05:20:06;;;;;;;7.87;6.17;;;;;;;19.91;48.23;97455.38;5087058;28;20548;-67
2023/06/16 05:22:31;;;;;;;8.00;6.33;;;;;;;20.05;47.92;97456.19;5072106;28;20615;-70
2023/06/16 05:24:57;;;;;;;8.80;6.20;;;;;;;20.15;48.12;97458.41;5088575;28;20427;-69
2023/06/16 05:27:24;;;;;;;9.73;6.20;;;;;;;20.25;47.75;97458.81;5085073;28;20296;-69
2023/06/16 05:29:51;;;;;;;10.23;6.60;;;;;;;20.29;47.91;97459.19;5092489;28;20186;-69
2023/06/16 05:32:19;;;;;;;7.97;5.77;;;;;;;20.37;47.60;97469.63;5093527;28;20423;-69
2023/06/16 05:34:44;;;;;;;8.57;6.30;;;;;;;20.41;47.33;97462.03;5069229;28;20459;-69
2023/06/16 05:37:10;;;;;;;11.20;6.00;;;;;;;20.54;47.28;97469.19;5067278;28;20495;-68
2023/06/16 05:39:35;;;;;;;8.50;6.10;;;;;;;20.63;47.32;97464.41;5091327;28;20655;-68
2023/06/16 05:42:01;;;;;;;7.80;5.90;;;;;;;20.75;47.26;97470.75;5075314;28;20200;-68
2023/06/16 05:44:26;;;;;;;11.60;6.17;;;;;;;20.89;46.94;97463.53;5092068;28;20189;-67
2023/06/16 05:46:52;;;;;;;9.23;5.73;;;;;;;21.07;46.96;97470.00;5094793;28;20243;-69
2023/06/16 05:49:17;;;;;;;7.00;5.93;;;;;;;21.19;46.01;97462.94;5094587;28;20242;-69
2023/06/16 05:51:43;;;;;;;6.67;5.77;;;;;;;21.31;45.92;97471.91;5092057;28;20673;-70
2023/06/16 05:54:08;;;;;;;7.33;5.67;;;;;;;21.47;45.54;97464.41;5090140;28;20238;-71
2023/06/16 05:56:34;;;;;;;7.27;4.90;;;;;;;21.62;45.09;97474.78;5089397;28;20745;-69
2023/06/16 05:59:00;;;;;;;7.87;5.37;;;;;;;21.81;44.95;97464.19;5089762;28;20196;-69
2023/06/16 06:01:25;;;;;;;5.90;4.70;;;;;;;21.98;44.29;97472.44;5093277;28;20254;-70
2023/06/16 06:03:51;;;;;;;7.73;5.00;;;;;;;22.12;43.30;97467.78;5091259;28;20185;-68
2023/06/16 06:06:16;;;;;;;8.13;4.97;;;;;;;22.25;42.67;97471.16;5094318;28;20311;-69
2023/06/16 06:08:42;;;;;;;5.77;4.93;;;;;;;22.40;42.29;97467.31;5088839;28;20230;-70
2023/06/16 06:11:07;;;;;;;6.50;4.90;;;;;;;22.58;42.02;97473.72;5086550;28;20192;-69
2023/06/16 06:13:33;;;;;;;6.53;5.37;;;;;;;22.72;41.61;97475.19;5089364;28;20217;-69
2023/06/16 06:16:00;;;;;;;6.23;4.63;;;;;;;22.86;40.97;97479.34;5087487;28;20582;-69
2023/06/16 06:18:26;;;;;;;6.67;5.10;;;;;;;22.99;40.43;97480.22;5089020;28;20786;-70
2023/06/16 06:20:51;;;;;;;5.30;4.80;;;;;;;23.13;40.58;97480.84;5093034;28;20444;-70
2023/06/16 06:23:17;;;;;;;10.10;5.47;;;;;;;23.28;40.56;97477.81;5100538;28;20206;-70
2023/06/16 06:25:42;;;;;;;7.23;4.87;;;;;;;23.42;40.17;97484.59;5090746;28;20758;-69
2023/06/16 06:28:08;;;;;;;6.00;4.80;;;;;;;23.46;37.92;97483.06;5088106;28;20290;-70
2023/06/16 06:30:33;;;;;;;6.20;4.20;;;;;;;23.55;38.16;97482.75;5092157;28;20194;-69
2023/06/16 06:33:00;;;;;;;11.20;4.80;;;;;;;23.69;38.29;97488.72;5087997;28;20416;-68
2023/06/16 06:35:25;;;;;;;7.20;4.60;;;;;;;23.84;38.24;97494.44;5094701;28;20191;-69
2023/06/16 06:37:51;;;;;;;6.83;4.60;;;;;;;24.01;38.43;97489.25;5096902;28;20510;-70
2023/06/16 06:40:16;;;;;;;8.13;4.60;;;;;;;24.15;37.97;97499.72;5070097;28;20174;-69
2023/06/16 06:42:42;;;;;;;11.90;4.50;;;;;;;24.27;37.49;97494.34;5088001;28;20209;-68
2023/06/16 06:45:10;;;;;;;5.00;4.10;;;;;;;24.42;37.64;97500.03;5087972;28;20197;-69
2023/06/16 06:47:36;;;;;;;10.57;4.13;;;;;;;24.54;37.47;97500.84;5088063;28;20185;-69
2023/06/16 06:50:02;;;;;;;8.90;4.43;;;;;;;24.65;36.84;97504.56;5088159;28;20486;-69
2023/06/16 06:52:28;;;;;;;5.13;4.63;;;;;;;24.78;36.68;97495.47;5088177;28;20178;-69
2023/06/16 06:54:55;;;;;;;7.77;4.30;;;;;;;24.86;36.11;97502.31;5088604;28;20564;-69
2023/06/16 06:57:20;;;;;;;4.83;4.43;;;;;;;24.99;36.71;97504.72;5093333;28;20588;-69
2023/06/16 06:59:45;;;;;;;14.80;4.30;;;;;;;25.10;36.21;97512.97;5089809;28;20412;-68
2023/06/16 07:02:11;;;;;;;7.13;4.13;;;;;;;25.25;36.43;97509.78;5093999;28;20580;-68
2023/06/16 07:04:38;;;;;;;8.13;4.40;;;;;;;25.35;35.59;97515.31;5087598;28;20879;-70
2023/06/16 07:07:04;;;;;;;5.20;4.63;;;;;;;25.48;35.22;97514.22;5092257;28;20197;-69
2023/06/16 07:09:30;;;;;;;7.60;4.20;;;;;;;25.63;34.99;97520.91;5087470;28;20420;-68
2023/06/16 07:11:55;;;;;;;4.73;4.30;;;;;;;25.77;34.88;97516.88;5087422;28;20452;-69
2023/06/16 07:14:21;;;;;;;5.20;4.70;;;;;;;25.89;34.49;97509.56;5088055;28;20498;-69
2023/06/16 07:16:46;;;;;;;7.40;4.63;;;;;;;26.04;34.13;97518.91;5083831;28;20249;-69
2023/06/16 07:19:12;;;;;;;4.20;3.80;;;;;;;26.16;33.04;97516.97;5076726;28;20205;-70
2023/06/16 07:21:40;;;;;;;6.97;4.37;;;;;;;26.27;32.22;97511.75;5090603;28;20682;-70
2023/06/16 07:24:06;;;;;;;4.63;4.23;;;;;;;26.40;31.33;97514.09;5090250;28;20268;-69
2023/06/16 07:26:32;;;;;;;4.47;3.60;;;;;;;26.51;31.31;97521.22;5095295;28;20447;-69
2023/06/16 07:28:58;;;;;;;6.13;4.20;;;;;;;26.63;31.40;97517.59;5102344;28;20427;-68
2023/06/16 07:31:24;;;;;;;4.37;3.70;;;;;;;26.78;31.85;97519.66;5088611;28;20519;-68
2023/06/16 07:33:50;;;;;;;9.00;4.20;;;;;;;26.92;31.98;97520.16;5094601;28;20959;-69
2023/06/16 07:36:15;;;;;;;5.83;4.40;;;;;;;27.05;32.08;97522.47;5086794;28;20198;-69
2023/06/16 07:38:41;;;;;;;5.03;3.60;;;;;;;27.19;32.03;97530.13;5089004;28;20182;-69
2023/06/16 07:41:07;;;;;;;4.77;4.27;;;;;;;27.30;31.45;97521.13;5096271;28;20182;-69
2023/06/16 07:43:33;;;;;;;6.87;3.80;;;;;;;27.40;30.85;97521.22;5091692;28;20280;-68
2023/06/16 07:45:58;;;;;;;10.10;4.20;;;;;;;27.50;30.11;97517.84;5090675;28;21072;-68
2023/06/16 07:48:24;;;;;;;11.87;4.70;;;;;;;27.60;30.17;97519.81;5091512;28;20444;-68
2023/06/16 07:50:50;;;;;;;6.20;4.47;;;;;;;27.67;30.18;97515.03;5091097;28;20189;-69
2023/06/16 07:53:15;;;;;;;4.17;3.83;;;;;;;27.79;29.96;97525.63;5091652;28;20246;-68
2023/06/16 07:55:41;;;;;;;5.47;4.27;;;;;;;27.93;29.81;97520.63;5090926;28;20266;-69
2023/06/16 07:58:06;;;;;;;4.63;3.67;;;;;;;28.09;29.76;97521.59;5093912;28;20772;-69
2023/06/16 08:00:32;;;;;;;4.37;3.87;;;;;;;28.22;28.42;97508.72;5091519;28;20182;-69
2023/06/16 08:02:57;;;;;;;6.73;3.90;;;;;;;28.29;26.94;97520.91;5095828;28;20201;-68
2023/06/16 08:05:22;;;;;;;5.03;3.87;;;;;;;28.25;26.69;97513.59;5099330;28;20232;-68
2023/06/16 08:07:48;;;;;;;4.50;4.00;;;;;;;28.38;26.14;97518.53;5098199;28;20315;-69
2023/06/16 08:10:19;;;;;;;4.13;3.30;;;;;;;28.51;26.54;97515.38;5093401;28;20193;-68
2023/06/16 08:12:45;;;;;;;6.33;3.73;;;;;;;28.62;24.66;97507.34;5091134;28;20192;-70
2023/06/16 08:15:10;;;;;;;11.43;3.70;;;;;;;28.76;23.61;97515.78;5090938;28;20936;-69
2023/06/16 08:17:36;;;;;;;9.33;4.07;;;;;;;28.87;23.51;97509.34;5094512;28;20205;-69
2023/06/16 08:20:04;;;;;;;5.40;3.43;;;;;;;29.02;22.91;97513.19;5093825;28;20196;-68
2023/06/16 08:22:30;;;;;;;7.27;3.40;;;;;;;29.12;22.94;97510.50;5095319;28;20300;-69
2023/06/16 08:24:55;;;;;;;6.87;3.40;;;;;;;29.12;21.74;97507.81;5098628;28;21233;-69
2023/06/16 08:27:21;;;;;;;7.10;3.37;;;;;;;29.22;22.19;97504.34;5090891;28;20208;-69
2023/06/16 08:29:47;;;;;;;8.63;3.77;;;;;;;29.34;22.87;97513.03;5090027;28;20194;-67
2023/06/16 08:32:13;;;;;;;5.60;3.50;;;;;;;29.44;22.08;97509.53;5090082;28;20189;-69
2023/06/16 08:34:38;;;;;;;6.03;3.17;;;;;;;29.50;22.04;97516.56;5087495;28;20416;-69
2023/06/16 08:37:05;;;;;;;4.97;3.47;;;;;;;29.60;22.22;97509.56;5092007;28;20846;-68
2023/06/16 08:39:30;;;;;;;5.10;3.40;;;;;;;29.63;21.68;97509.00;5097591;28;20185;-69
2023/06/16 08:41:56;;;;;;;3.80;3.50;;;;;;;29.69;21.72;97502.53;5088957;28;20458;-68
2023/06/16 08:44:21;;;;;;;7.80;3.97;;;;;;;29.74;21.67;97507.94;5090226;28;20185;-69
2023/06/16 08:46:48;;;;;;;3.57;3.27;;;;;;;29.80;22.06;97520.38;5071166;28;20198;-68
2023/06/16 08:49:15;;;;;;;10.33;3.83;;;;;;;29.77;21.80;97507.41;5088736;28;20758;-70
2023/06/16 08:51:47;;;;;;;8.33;3.50;;;;;;;29.84;22.21;97513.34;5093247;28;20850;-69
2023/06/16 08:54:13;;;;;;;8.87;3.53;;;;;;;29.82;21.65;97511.97;5089345;28;20511;-69
2023/06/16 08:56:39;;;;;;;5.80;3.47;;;;;;;29.92;21.65;97517.41;5088249;28;21224;-68
2023/06/16 08:59:05;;;;;;;7.40;3.13;;;;;;;30.04;22.00;97509.03;5070697;28;20501;-68
2023/06/16 09:01:34;;;;;;;7.03;3.37;;;;;;;30.09;21.39;97502.81;5089273;28;20512;-68
2023/06/16 09:03:59;;;;;;;3.50;3.20;;;;;;;30.12;21.11;97497.66;5088911;28;20924;-68
2023/06/16 09:06:25;;;;;;;9.23;3.30;;;;;;;30.23;21.18;97505.78;5088847;28;20534;-68
2023/06/16 09:08:52;;;;;;;3.73;3.13;;;;;;;30.33;20.73;97503.06;5087022;28;20716;-67
2023/06/16 09:11:23;;;;;;;3.70;3.10;;;;;;;30.30;20.23;97500.88;5092481;28;20222;-68
2023/06/16 09:13:51;;;;;;;4.97;3.70;;;;;;;30.46;20.98;97499.78;5089170;28;20883;-68
2023/06/16 09:16:17;;;;;;;5.20;3.80;;;;;;;30.56;20.42;97493.53;5095406;28;20489;-68
2023/06/16 09:18:44;;;;;;;5.90;3.57;;;;;;;30.65;20.56;97501.88;5088516;28;20460;-69
2023/06/16 09:21:11;;;;;;;4.90;3.10;;;;;;;30.78;20.49;97498.59;5092302;28;20426;-68
2023/06/16 09:23:38;;;;;;;5.90;3.70;;;;;;;30.90;19.78;97494.75;5092769;28;20936;-68
2023/06/16 09:26:12;;;;;;;8.13;3.37;;;;;;;30.77;19.24;97493.47;5087653;28;20443;-68
2023/06/16 09:28:39;;;;;;;4.37;3.80;;;;;;;30.78;19.97;97501.31;5084073;28;20427;-69
2023/06/16 09:31:10;;;;;;;6.23;3.70;;;;;;;30.85;19.65;97494.78;5053047;28;1069786;-67
2023/06/16 09:33:36;;;;;;;8.57;3.33;;;;;;;30.82;19.81;97484.53;5089879;28;20182;-68
2023/06/16 09:36:02;;;;;;;9.20;3.80;;;;;;;30.95;20.13;97481.22;5088251;28;20478;-69
2023/06/16 09:38:31;;;;;;;8.17;3.70;;;;;;;31.08;20.04;97477.06;5071171;28;20200;-69
2023/06/16 09:41:07;;;;;;;6.47;3.60;;;;;;;31.20;20.20;97482.19;5069631;28;20458;-68
2023/06/16 09:43:32;;;;;;;7.83;3.60;;;;;;;31.37;20.25;97484.50;5089232;28;20455;-70
2023/06/16 09:45:57;;;;;;;8.57;3.80;;;;;;;31.48;19.70;97474.41;5090353;28;20435;-69
2023/06/16 09:48:25;;;;;;;8.63;3.60;;;;;;;31.46;19.24;97480.09;5099543;28;20306;-69
2023/06/16 09:50:52;;;;;;;7.43;3.60;;;;;;;31.37;18.99;97487.22;5089173;28;20265;-68
2023/06/16 09:53:21;;;;;;;6.70;3.50;;;;;;;31.45;19.48;97480.41;5089512;28;20423;-69
2023/06/16 09:55:47;;;;;;;9.63;3.80;;;;;;;31.55;18.82;97480.31;5088101;28;20435;-69
2023/06/16 09:58:12;;;;;;;4.70;3.33;;;;;;;31.61;19.43;97479.19;5089328;28;20512;-70
2023/06/16 10:00:38;;;;;;;3.50;3.20;;;;;;;31.51;18.53;97479.25;5091484;28;20734;-70
2023/06/16 10:03:07;;;;;;;7.90;3.70;;;;;;;31.18;18.79;97478.94;5091895;28;20856;-70
2023/06/16 10:05:34;;;;;;;6.70;3.50;;;;;;;31.14;19.31;97465.16;5070011;28;20654;-69
2023/06/16 10:08:02;;;;;;;5.73;3.63;;;;;;;31.22;20.00;97461.06;5094059;28;20423;-70
2023/06/16 10:10:30;;;;;;;3.77;3.43;;;;;;;31.33;19.65;97459.09;5088373;28;20428;-70
2023/06/16 10:12:56;;;;;;;5.50;3.37;;;;;;;31.54;19.31;97467.84;5070554;28;20994;-71
2023/06/16 10:15:23;;;;;;;3.90;3.17;;;;;;;31.65;18.81;97468.59;5098412;28;20943;-69
2023/06/16 10:17:49;;;;;;;6.57;3.40;;;;;;;31.70;18.73;97472.09;5087735;28;20781;-69
2023/06/16 10:20:17;;;;;;;17.23;3.23;;;;;;;31.89;18.87;97459.75;5085067;28;20416;-70
2023/06/16 10:22:43;;;;;;;4.40;3.37;;;;;;;31.95;18.40;97467.53;5088541;28;21093;-70
2023/06/16 10:25:08;;;;;;;5.73;3.50;;;;;;;31.95;18.57;97464.84;5087411;28;20508;-68
2023/06/16 10:27:34;;;;;;;8.43;3.23;;;;;;;31.97;18.22;97462.66;5078903;28;20213;-68
2023/06/16 10:30:01;;;;;;;5.10;4.10;;;;;;;32.12;18.41;97466.31;5088378;28;20170;-69
2023/06/16 10:32:26;;;;;;;3.77;2.97;;;;;;;32.28;18.43;97467.78;5070402;28;20184;-70
2023/06/16 10:34:56;;;;;;;7.50;3.80;;;;;;;32.46;18.56;97462.69;5084644;28;20518;-69
2023/06/16 10:37:23;;;;;;;7.70;3.33;;;;;;;32.57;18.45;97466.13;5097218;28;20201;-70
2023/06/16 10:39:48;;;;;;;7.60;3.47;;;;;;;32.71;18.01;97466.19;5093506;28;20415;-68
2023/06/16 10:42:14;;;;;;;7.80;3.60;;;;;;;32.78;17.29;97464.75;5095196;28;21334;-69
2023/06/16 10:44:40;;;;;;;5.23;3.40;;;;;;;32.75;17.66;97459.91;5092380;28;20222;-70
2023/06/16 10:47:09;;;;;;;10.10;3.53;;;;;;;32.66;17.91;97463.53;5087577;28;20444;-70
2023/06/16 10:50:03;;;;;;;8.20;3.90;;;;;;;32.81;18.17;97460.66;5088336;28;20813;-70
2023/06/16 10:52:28;;;;;;;5.23;3.60;;;;;;;32.83;17.10;97466.63;5081755;28;20427;-68
2023/06/16 10:54:55;;;;;;;4.63;3.57;;;;;;;32.93;17.31;97465.69;5087532;28;20434;-68
2023/06/16 10:57:21;;;;;;;8.30;3.70;;;;;;;32.95;16.92;97468.09;5092904;28;20236;-68
2023/06/16 11:00:06;;;;;;;7.60;3.37;;;;;;;32.97;16.75;97468.59;5092427;28;20484;-68
2023/06/16 11:02:33;;;;;;;10.33;3.20;;;;;;;32.89;17.29;97462.72;5085600;28;20555;-68
2023/06/16 11:05:08;;;;;;;3.90;3.60;;;;;;;32.74;17.43;97460.19;5086978;28;20428;-68
2023/06/16 11:08:01;;;;;;;6.63;3.67;;;;;;;32.86;17.16;97468.75;5088305;28;20799;-70
2023/06/16 11:10:27;;;;;;;7.10;3.37;;;;;;;33.01;17.46;97458.78;5087375;28;20444;-68
2023/06/16 11:12:52;;;;;;;3.50;3.20;;;;;;;33.06;17.80;97466.84;5090470;28;20448;-69
2023/06/16 11:15:21;;;;;;;4.47;3.20;;;;;;;33.02;17.60;97458.47;5087553;28;20182;-66
2023/06/16 11:17:49;;;;;;;6.20;3.70;;;;;;;33.02;17.49;97460.38;5087832;28;20683;-69
2023/06/16 11:20:15;;;;;;;5.60;3.40;;;;;;;32.96;17.39;97467.00;5091612;28;20412;-69
2023/06/16 11:22:43;;;;;;;7.57;3.87;;;;;;;32.94;16.98;97470.00;5095774;28;20460;-70
2023/06/16 11:25:09;;;;;;;3.97;3.57;;;;;;;32.96;17.14;97456.13;5089425;28;20795;-69
2023/06/16 11:27:36;;;;;;;5.53;3.40;;;;;;;32.99;17.11;97455.56;5091905;28;20952;-70
2023/06/16 11:30:05;;;;;;;5.73;3.30;;;;;;;33.11;17.26;97455.91;5088708;28;20412;-70